Latest Weather Observations for Westmere

IDV60801

Issued at 9:35 pm EST Friday 1 August 2014 (issued every 30 minutes, with the page automatically refreshed every 10 minutes)

About weather observations | Map of weather stations | Latest weather observations for VIC | Other Formats
Station Details ID: 089112 Name: WESTMERE Lat: -37.71 Lon: 142.94 Height: 226.0 m
Data from the previous 72 hours. | See also: Recent months at Westmere
Date/Time
EST
Temp
°C
App
Temp
°C
Dew
Point
Rel
Hum
%
Delta-T
°C
Wind Press
QNH
hPa
Press
MSL
hPa
Rain
since 9 am
mm
Dir
 
Spd
km/h
Gust
km/h
Spd
kts
Gust
kts
01/09:30pm 3.6 0.5 3.6 100 0.0 W 9 13 5 7 1022.7 - 11.8
01/09:00pm 3.7 0.6 3.7 100 0.0 W 9 15 5 8 1021.9 1022.2 11.6
01/08:30pm 3.4 -0.5 3.4 100 0.0 WNW 13 20 7 11 1021.2 - 11.0
01/08:00pm 3.7 0.2 3.6 99 0.0 W 11 17 6 9 1020.8 1021.2 11.0
01/07:30pm 4.1 0.3 4.0 99 0.0 WSW 13 19 7 10 1019.9 - 11.0
01/07:00pm 3.8 -0.8 3.7 99 0.0 W 17 24 9 13 1019.3 1019.6 11.0
01/06:30pm 3.5 -1.5 3.4 99 0.0 SW 19 24 10 13 1018.8 - 10.2
01/06:00pm 3.6 -1.0 3.5 99 0.0 SW 17 24 9 13 1018.0 1018.3 8.4
01/05:33pm 3.8 -2.9 3.5 98 0.1 SSW 28 48 15 26 1017.5 - 7.0
01/05:30pm 5.0 -0.8 4.4 96 0.3 SSW 24 46 13 25 1017.4 - 6.8
01/05:03pm 5.5 -1.0 4.5 93 0.4 SSW 28 48 15 26 1015.9 - 6.6
01/05:00pm 5.7 -0.7 5.0 95 0.3 SSW 28 37 15 20 1015.8 1016.1 6.6
01/04:39pm 6.8 -0.3 3.4 79 1.5 SW 30 50 16 27 1015.1 - 6.6
01/04:30pm 7.0 -0.1 3.6 79 1.5 SW 30 44 16 24 1014.4 - 6.6
01/04:00pm 7.2 0.2 4.2 81 1.3 WSW 30 41 16 22 1013.7 1014.0 6.6
01/03:30pm 5.9 1.3 5.6 98 0.1 SW 19 26 10 14 1013.2 - 6.6
01/03:00pm 5.1 0.2 5.0 99 0.0 SW 20 32 11 17 1012.9 1013.1 6.6
01/02:30pm 5.6 -1.8 3.9 89 0.7 SW 32 46 17 25 1012.1 - 6.2
01/02:00pm 6.3 -2.0 4.0 85 1.0 SW 37 57 20 31 1011.1 1011.4 5.8
01/01:58pm 6.3 -2.4 4.0 85 1.0 SW 39 57 21 31 1010.9 - 5.8
01/01:52pm 6.4 -3.2 4.2 86 1.0 SW 44 57 24 31 1010.5 - 5.8
01/01:49pm 6.5 -1.5 5.6 94 0.4 W 37 54 20 29 1010.3 - 5.8
01/01:30pm 5.3 1.4 5.2 99 0.0 WNW 15 26 8 14 1010.2 - 5.8
01/01:00pm 4.7 2.4 4.7 100 0.0 WNW 6 9 3 5 1010.1 1010.4 5.2
01/12:30pm 4.2 0.4 4.1 99 0.0 W 13 22 7 12 1010.0 - 4.8
01/12:00pm 4.7 -0.4 4.3 97 0.2 WSW 20 30 11 16 1009.0 1009.2 4.0
01/11:30am 4.8 -0.1 4.2 96 0.3 W 19 26 10 14 1008.2 - 3.6
01/11:00am 4.0 -1.1 3.9 99 0.0 W 20 35 11 19 1007.7 1008.0 3.6
01/10:34am 3.9 -2.8 3.8 99 0.0 NW 28 33 15 18 1006.4 - 3.2
01/10:30am 3.7 0.6 3.6 99 0.0 W 9 13 5 7 1006.6 - 3.2
01/10:00am 3.6 -3.5 3.5 99 0.0 WNW 30 44 16 24 1005.9 1006.2 2.4
01/09:30am 4.3 -1.9 4.2 99 0.0 WNW 26 37 14 20 1005.1 - 1.0
01/09:00am 4.8 -0.6 4.4 97 0.2 WNW 22 32 12 17 1004.4 1004.7 11.2
01/08:30am 3.9 -1.6 3.8 99 0.0 NNW 22 32 12 17 1003.1 - 11.2
01/08:00am 3.6 -1.6 3.5 99 0.0 NW 20 30 11 16 1003.4 1003.7 11.2
01/07:30am 3.5 -1.5 3.4 99 0.0 NNW 19 28 10 15 1002.9 - 11.2
01/07:00am 3.2 -2.1 3.1 99 0.0 NNW 20 30 11 16 1002.7 1003.1 11.2
01/06:30am 3.3 -4.8 3.2 99 0.0 NW 35 46 19 25 1002.0 - 11.2
01/06:22am 3.7 -3.1 3.3 97 0.2 NW 28 46 15 25 1002.1 - 10.8
01/06:00am 3.5 -1.2 3.4 99 0.0 NNW 17 24 9 13 1001.6 1001.9 10.4
01/05:30am 3.1 -2.6 3.0 99 0.0 NNW 22 30 12 16 1001.1 - 10.4
01/05:00am 3.1 -3.0 3.0 99 0.0 NNW 24 37 13 20 1001.3 1001.6 10.4
01/04:30am 3.7 -2.6 3.6 99 0.0 NNW 26 35 14 19 1002.0 - 10.4
01/04:00am 3.9 -2.4 3.8 99 0.0 NW 26 37 14 20 1002.8 1003.2 9.8
01/03:30am 3.8 -2.5 3.5 98 0.1 NNW 26 39 14 21 1002.4 - 9.6
01/03:00am 4.1 -1.0 4.0 99 0.0 NW 20 33 11 18 1002.5 1002.9 9.6
01/02:30am 4.5 -0.7 3.8 95 0.3 WNW 20 30 11 16 1002.8 - 9.6
01/02:00am 4.6 0.9 4.2 97 0.2 NW 13 20 7 11 1003.0 1003.4 9.4
01/01:30am 4.3 0.1 3.7 96 0.3 WNW 15 24 8 13 1002.7 - 9.2
01/01:00am 3.6 0.4 3.2 97 0.2 NNW 9 13 5 7 1002.6 1003.0 9.0
01/12:30am 4.1 -0.1 4.0 99 0.0 NW 15 20 8 11 1002.7 - 9.0
01/12:00am 3.5 -0.8 3.4 99 0.0 N 15 20 8 11 1002.3 1002.6 9.0
 
Date/Time
EST
Temp
°C
App
Temp
°C
Dew
Point
Rel
Hum
%
Delta-T
°C
Wind Press
QNH
hPa
Press
MSL
hPa
Rain
since 9 am
mm
Dir
 
Spd
km/h
Gust
km/h
Spd
kts
Gust
kts
31/11:30pm 4.0 -1.0 3.6 97 0.2 NW 19 24 10 13 1002.5 - 9.0
31/11:00pm 3.8 -0.9 3.4 97 0.2 NW 17 20 9 11 1002.5 1002.9 9.0
31/10:30pm 4.3 -0.9 3.3 93 0.4 NW 20 30 11 16 1002.3 - 9.0
31/10:00pm 5.2 -0.8 3.2 87 0.8 WNW 24 35 13 19 1002.6 1003.0 9.0
31/09:30pm 4.9 -1.1 3.1 88 0.8 WNW 24 35 13 19 1002.1 - 9.0
31/09:00pm 4.4 -0.9 3.2 92 0.5 NW 20 30 11 16 1001.4 1001.7 9.0
31/08:30pm 4.8 -0.8 3.5 91 0.5 WNW 22 32 12 17 1000.9 - 9.0
31/08:00pm 5.4 -0.8 4.4 93 0.4 WNW 26 39 14 21 1001.0 1001.3 9.0
31/07:30pm 5.2 -0.1 4.8 97 0.2 NW 22 33 12 18 1000.9 - 9.0
31/07:00pm 5.6 -2.0 3.8 88 0.8 WNW 33 46 18 25 1000.4 1000.7 9.0
31/06:35pm 5.7 -0.9 4.0 89 0.7 WNW 28 56 15 30 1000.3 - 9.0
31/06:30pm 5.7 0.0 5.1 96 0.3 W 24 39 13 21 1000.4 - 9.0
31/06:00pm 6.2 -0.4 4.2 87 0.9 WNW 28 43 15 23 1000.0 1000.3 8.8
31/05:32pm 6.7 0.1 4.2 84 1.1 WNW 28 48 15 26 999.5 - 8.8
31/05:30pm 6.7 0.5 4.5 86 1.0 WNW 26 43 14 23 999.4 - 8.8
31/05:00pm 6.5 1.0 5.9 96 0.3 WNW 24 37 13 20 999.3 999.6 8.8
31/04:30pm 6.3 0.5 6.2 99 0.0 WNW 26 37 14 20 999.0 - 8.6
31/04:00pm 6.0 0.1 5.9 99 0.0 WNW 26 39 14 21 999.0 999.3 8.6
31/03:44pm 5.9 -0.4 5.8 99 0.0 W 28 48 15 26 998.9 - 8.6
31/03:30pm 6.0 0.1 6.0 100 0.0 W 26 41 14 22 998.9 - 8.4
31/03:00pm 6.5 -0.4 6.4 99 0.0 W 32 48 17 26 998.7 998.9 7.6
31/02:36pm 6.8 0.0 6.7 99 0.0 W 32 50 17 27 997.8 - 7.0
31/02:30pm 7.0 1.0 7.0 100 0.0 W 28 39 15 21 997.8 - 7.0
31/02:00pm 7.4 0.7 7.3 99 0.0 W 32 46 17 25 997.4 997.7 6.4
31/01:30pm 8.0 1.8 8.0 100 0.0 W 30 50 16 27 996.9 - 6.0
31/01:28pm 8.2 2.5 8.2 100 0.0 W 28 50 15 27 997.0 - 6.0
31/01:00pm 8.8 4.0 8.8 100 0.0 WNW 24 35 13 19 996.2 996.5 3.4
31/12:48pm 10.4 1.4 7.1 80 1.6 W 44 63 24 34 996.1 - 0.4
31/12:44pm 13.4 4.3 8.3 71 2.6 WNW 46 63 25 34 995.4 - 0.0
31/12:30pm 13.5 4.6 7.7 68 2.9 NNW 44 70 24 38 994.5 - 0.0
31/12:00pm 13.6 3.9 7.6 67 3.0 NNW 48 69 26 37 995.1 995.3 0.0
31/11:30am 13.5 3.7 7.1 65 3.1 NNW 48 76 26 41 995.9 - 0.0
31/11:00am 13.2 3.9 7.4 68 2.9 NNW 46 69 25 37 996.4 996.7 0.0
31/10:30am 13.8 4.9 7.8 67 3.0 NNW 44 63 24 34 996.8 - 0.0
31/10:00am 12.6 4.7 7.7 72 2.4 NNW 39 59 21 32 997.9 998.2 0.0
31/09:30am 12.5 3.8 7.6 72 2.4 NNW 43 61 23 33 998.2 - 0.0
31/09:00am 12.2 3.8 7.3 72 2.4 NNW 41 61 22 33 998.5 998.8 0.6
31/08:30am 11.6 3.9 7.1 74 2.2 NNW 37 59 20 32 998.5 - 0.6
31/08:13am 10.5 4.2 7.4 81 1.5 NNW 30 52 16 28 999.2 - 0.6
31/08:00am 11.2 4.2 6.9 75 2.1 NNW 33 46 18 25 999.6 999.9 0.6
31/07:30am 11.8 3.7 6.9 72 2.4 NNW 39 57 21 31 999.9 - 0.6
31/07:11am 10.6 4.3 7.5 81 1.5 NNW 30 50 16 27 1000.0 - 0.6
31/07:00am 10.3 5.1 7.4 82 1.4 NNW 24 37 13 20 1000.3 1000.6 0.6
31/06:30am 11.9 3.4 6.8 71 2.5 NNW 41 61 22 33 1000.2 - 0.6
31/06:00am 12.1 3.7 7.2 72 2.4 NNW 41 67 22 36 1000.7 1001.0 0.6
31/05:30am 12.0 5.2 7.1 72 2.4 NNW 32 52 17 28 1001.4 - 0.6
31/05:19am 12.4 5.4 6.9 69 2.7 NNW 33 57 18 31 1001.4 - 0.6
31/05:00am 12.5 4.4 6.8 68 2.8 NW 39 56 21 30 1001.6 1001.9 0.6
31/04:35am 12.6 3.7 6.9 68 2.8 NNW 43 61 23 33 1002.0 - 0.6
31/04:30am 12.7 3.3 7.0 68 2.8 NNW 46 61 25 33 1002.0 - 0.6
31/04:00am 13.0 4.1 7.0 67 2.9 NNW 43 63 23 34 1002.4 1002.7 0.6
31/03:53am 12.8 4.7 7.0 68 2.8 NNW 39 57 21 31 1002.6 - 0.6
31/03:30am 12.9 4.0 6.7 66 3.0 NNW 43 59 23 32 1002.9 - 0.6
31/03:00am 13.2 4.1 6.8 65 3.1 NW 44 65 24 35 1003.7 1004.0 0.6
31/02:30am 12.9 4.5 7.4 69 2.7 NW 41 61 22 33 1004.0 - 0.6
31/02:28am 13.0 4.2 7.2 68 2.8 NW 43 61 23 33 1003.9 - 0.6
31/02:00am 12.8 4.9 7.9 72 2.4 NNW 39 54 21 29 1004.3 1004.6 0.6
31/01:30am 12.6 5.0 8.9 78 1.9 NW 39 57 21 31 1005.0 - 0.6
31/01:00am 12.9 5.0 9.2 78 1.9 NW 41 57 22 31 1005.5 1005.8 0.6
31/12:57am 12.8 5.3 9.3 79 1.8 NW 39 57 21 31 1005.5 - 0.6
31/12:30am 12.4 5.6 9.2 81 1.6 NW 35 50 19 27 1006.2 - 0.6
31/12:00am 12.9 6.5 9.2 78 1.9 NNW 33 48 18 26 1006.7 1007.1 0.6
 
Date/Time
EST
Temp
°C
App
Temp
°C
Dew
Point
Rel
Hum
%
Delta-T
°C
Wind Press
QNH
hPa
Press
MSL
hPa
Rain
since 9 am
mm
Dir
 
Spd
km/h
Gust
km/h
Spd
kts
Gust
kts
30/11:30pm 12.8 7.4 9.6 81 1.6 NNW 28 43 15 23 1007.3 - 0.6
30/11:00pm 11.8 8.6 11.3 97 0.3 N 19 35 10 19 1007.9 1008.2 0.6
30/10:30pm 12.3 7.6 10.5 89 0.9 NNW 26 41 14 22 1008.4 - 0.4
30/10:00pm 12.5 6.6 10.6 88 1.0 NNW 32 50 17 27 1008.9 1009.2 0.4
30/09:59pm 12.6 6.8 10.7 88 1.0 NNW 32 50 17 27 1008.9 - 0.4
30/09:30pm 13.1 7.7 9.5 79 1.9 NNW 28 43 15 23 1008.8 - 0.4
30/09:13pm 12.5 6.9 10.0 85 1.3 NW 30 48 16 26 1009.1 - 0.4
30/09:00pm 12.7 5.3 9.7 82 1.6 NNW 39 54 21 29 1009.2 1009.5 0.4
30/08:54pm 13.5 7.2 9.0 74 2.3 NNW 32 50 17 27 1009.0 - 0.4
30/08:30pm 13.5 7.8 8.4 71 2.6 NNW 28 39 15 21 1008.9 - 0.4
30/08:00pm 13.4 7.7 8.5 72 2.5 NW 28 39 15 21 1009.2 1009.5 0.4
30/07:30pm 13.3 8.0 8.6 73 2.4 NW 26 37 14 20 1009.2 - 0.4
30/07:00pm 13.2 8.1 9.3 77 2.0 NW 26 41 14 22 1009.4 1009.7 0.4
30/06:30pm 12.9 7.9 9.7 81 1.7 NW 26 32 14 17 1009.7 - 0.4
30/06:00pm 13.2 8.6 9.5 78 1.9 NW 24 35 13 19 1009.6 1009.9 0.4
30/05:30pm 12.8 9.2 10.5 86 1.2 NNW 20 30 11 16 1009.4 - 0.4
30/05:01pm 12.9 7.9 11.0 88 1.0 NW 28 48 15 26 1009.7 - 0.4
30/05:00pm 12.9 7.5 11.0 88 1.0 NW 30 48 16 26 1009.7 1010.0 0.4
30/04:30pm 13.7 8.8 9.9 78 2.0 NW 26 39 14 21 1009.7 - 0.4
30/04:00pm 14.2 8.1 10.6 79 1.9 NW 33 48 18 26 1009.6 1009.9 0.4
30/03:53pm 14.3 8.9 10.9 80 1.8 NW 30 48 16 26 1009.5 - 0.4
30/03:30pm 14.4 8.1 11.0 80 1.8 NW 35 52 19 28 1009.6 - 0.4
30/03:00pm 14.6 8.4 11.4 81 1.7 NNW 35 48 19 26 1009.5 1009.8 0.4
30/02:30pm 14.3 9.5 11.6 84 1.5 NW 28 43 15 23 1009.7 - 0.4
30/02:00pm 14.2 9.5 11.9 86 1.3 NW 28 43 15 23 1009.8 1010.1 0.4
30/01:30pm 13.6 9.1 12.5 93 0.6 NW 28 41 15 22 1010.5 - 0.4
30/01:16pm 13.6 9.0 13.4 99 0.1 NW 30 50 16 27 1010.4 - 0.4
30/01:00pm 13.5 9.7 13.5 100 0.0 NW 26 37 14 20 1010.7 1011.1 0.4
30/12:30pm 13.6 9.8 13.6 100 0.0 NW 26 37 14 20 1010.9 - 0.2
30/12:00pm 13.0 10.3 13.0 100 0.0 NW 19 26 10 14 1011.6 1012.0 0.2
30/11:30am 12.6 8.9 12.6 100 0.0 NW 24 33 13 18 1012.1 - 0.0
30/11:00am 12.8 9.5 12.8 100 0.0 NNW 22 32 12 17 1012.3 1012.7 0.0
30/10:30am 13.4 10.0 12.6 95 0.4 NNW 22 30 12 16 1012.2 - 0.0
30/10:00am 13.3 10.2 12.2 93 0.6 NNW 20 32 11 17 1012.3 1012.7 0.0
30/09:30am 12.7 9.0 11.4 92 0.7 NW 22 32 12 17 1012.5 - 0.0
30/09:00am 12.2 9.2 12.0 99 0.1 NNW 19 28 10 15 1012.2 1012.6 0.4
30/08:30am 11.6 8.3 11.6 100 0.0 NNW 20 33 11 18 1011.9 - 0.4
30/08:00am 10.5 7.1 10.5 100 0.0 N 19 26 10 14 1011.7 1012.1 0.4
30/07:30am 11.1 7.9 11.1 100 0.0 NW 19 24 10 13 1011.8 - 0.4
30/07:00am 11.2 7.8 10.6 96 0.3 NNW 19 26 10 14 1011.6 1012.0 0.4
30/06:30am 10.1 7.2 9.6 97 0.3 NNW 15 20 8 11 1011.5 - 0.4
30/06:00am 9.8 7.7 9.7 99 0.1 NNW 11 15 6 8 1011.5 1011.9 0.4
30/05:30am 9.5 7.7 9.5 100 0.0 NNW 9 15 5 8 1011.6 - 0.4
30/05:00am 9.1 6.4 9.1 100 0.0 N 13 20 7 11 1011.5 1011.9 0.4
30/04:30am 10.1 6.9 10.1 100 0.0 NW 17 22 9 12 1011.3 - 0.4
30/04:00am 9.5 7.3 9.5 100 0.0 NNW 11 15 6 8 1011.4 1011.8 0.4
30/03:30am 10.4 7.7 10.4 100 0.0 WNW 15 24 8 13 1011.6 - 0.4
30/03:00am 11.2 7.6 10.7 97 0.3 WNW 20 28 11 15 1011.8 1012.2 0.4
30/02:30am 11.6 7.2 11.6 100 0.0 WNW 26 35 14 19 1011.7 - 0.4
30/02:00am 12.1 7.3 11.5 96 0.3 WNW 28 43 15 23 1011.4 1011.8 0.4
30/01:30am 12.8 7.3 10.7 87 1.1 WNW 30 44 16 24 1011.3 - 0.4
30/01:00am 12.9 7.8 10.6 86 1.2 WNW 28 41 15 22 1011.3 1011.7 0.4
30/12:30am 12.5 8.3 11.2 92 0.7 NW 24 35 13 19 1011.3 - 0.4
30/12:00am 12.6 8.6 11.7 94 0.5 WNW 24 33 13 18 1011.4 1011.8 0.4
 
Date/Time
EST
Temp
°C
App
Temp
°C
Dew
Point
Rel
Hum
%
Delta-T
°C
Wind Press
QNH
hPa
Press
MSL
hPa
Rain
since 9 am
mm
Dir
 
Spd
km/h
Gust
km/h
Spd
kts
Gust
kts
29/11:30pm 13.1 8.4 10.8 86 1.2 NW 26 35 14 19 1011.0 - 0.4
29/11:00pm 13.2 7.9 11.1 87 1.1 WNW 30 46 16 25 1011.1 1011.5 0.4
29/10:30pm 13.3 8.4 11.2 87 1.1 WNW 28 39 15 21 1010.9 - 0.4
29/10:00pm 12.9 8.6 12.1 95 0.4 NW 26 37 14 20 1010.9 1011.3 0.4

Other Formats:

Comma delimited format used in spreadsheet applications
http://www.bom.gov.au/fwo/IDV60801/IDV60801.95840.axf

JavaScript Object Notation format (JSON) in row-major order
http://www.bom.gov.au/fwo/IDV60801/IDV60801.95840.json